»·PEaware :: SWA2457 KSFO-KLAX

SWA2457 :: KSFO-KLAX

FLIGHT INFORMATION

Flight Status: Arrived
Operator:
Southwest Airlines
More flights by this operator :: More flights under this callsign
Pilot: Garrett E. (679)
Aircraft: BOEING 737-800
(B738)
More flights by this aircraft type
Origin: KSFO San Francisco Intl
United States
Destination: KLAX Los Angeles Intl
United States
More flights between these airports :: More routes between these airports
Route: +WESLA3 EBAYE DCT BURGL IRNMN2
File this flight plan on PilotEdge
Remarks: PBN / A1B1D1 DOF / 180610 REG / N8642E EET / KZLA0024 RVR / 75 PER / C RMK / TCAS
Altitude:
(Current/Filed)
350ft
Speed:
(Current/Filed)
461kts
Departed: 10-Jun-18 01:39 PM
Arrived: 10-Jun-18 02:37 PM
Distance/Time
Traveled:
293nm/0:58
Distance/Time
To Go:
Arrived

Flight Plot

Page will automatically refresh every two minutes.

Flight plan parsing failed; only flown route is shown


Map Options




Map Legend


Flown Route
Filed Route
Departure Airport
Arrival Airport
Navaid (VOR, NDB)
Fix

Horizontal Profiles

Position Reports

Time Latitude Longitude Heading Altitude Ground
Speed
10-Jun-18 13:07 37.613621 -122.384455 254 21ft 0kts
10-Jun-18 13:08 37.613621 -122.384455 254 21ft 0kts
10-Jun-18 13:12 37.613621 -122.384455 254 21ft 0kts
10-Jun-18 13:13 37.613621 -122.384455 254 21ft 0kts
10-Jun-18 13:14 37.613621 -122.384455 254 21ft 0kts
10-Jun-18 13:15 37.613621 -122.384455 254 21ft 0kts
10-Jun-18 13:18 37.613621 -122.384455 254 21ft 0kts
10-Jun-18 13:19 37.613621 -122.384455 254 21ft 0kts
10-Jun-18 13:20 37.613621 -122.384455 254 21ft 0kts
10-Jun-18 13:21 37.613621 -122.384455 254 21ft 0kts
10-Jun-18 13:22 37.613621 -122.384455 254 21ft 0kts
10-Jun-18 13:23 37.613621 -122.384455 254 21ft 0kts
10-Jun-18 13:24 37.613621 -122.384455 254 21ft 0kts
10-Jun-18 13:25 37.613670 -122.384245 248 21ft 2kts
10-Jun-18 13:26 37.614052 -122.383735 158 21ft 2kts
10-Jun-18 13:27 37.614187 -122.383940 118 21ft 0kts
10-Jun-18 13:28 37.614187 -122.383940 118 21ft 0kts
10-Jun-18 13:29 37.614186 -122.383938 118 21ft 0kts
10-Jun-18 13:30 37.613940 -122.383379 117 21ft 0kts
10-Jun-18 13:31 37.613940 -122.383377 117 21ft 0kts
10-Jun-18 13:32 37.613939 -122.383376 117 21ft 0kts
10-Jun-18 13:33 37.615290 -122.380524 28 21ft 16kts
10-Jun-18 13:34 37.618042 -122.377656 106 21ft 11kts
10-Jun-18 13:35 37.614998 -122.369977 118 21ft 21kts
10-Jun-18 13:36 37.611806 -122.363281 119 21ft 26kts
10-Jun-18 13:37 37.610974 -122.358969 26 21ft 0kts
10-Jun-18 13:38 37.611257 -122.358795 27 21ft 13kts
10-Jun-18 13:39 37.620957 -122.379457 301 511ft 133kts
10-Jun-18 13:40 37.641808 -122.426392 296 2321ft 201kts
10-Jun-18 13:41 37.665325 -122.500376 264 3294ft 256kts
10-Jun-18 13:42 37.605244 -122.530903 159 6405ft 290kts
10-Jun-18 13:43 37.527717 -122.492211 159 9392ft 309kts
10-Jun-18 13:44 37.453197 -122.428486 132 11379ft 360kts
10-Jun-18 13:45 37.381209 -122.328581 132 13320ft 399kts
10-Jun-18 13:46 37.304446 -122.223890 133 15807ft 416kts
10-Jun-18 13:47 37.224075 -122.114924 134 18130ft 432kts
10-Jun-18 13:48 37.141064 -122.002720 135 20216ft 446kts
10-Jun-18 13:49 37.054947 -121.887014 135 22080ft 459kts
10-Jun-18 13:50 36.966749 -121.769018 135 23730ft 470kts
10-Jun-18 13:51 36.876434 -121.648687 135 25220ft 480kts
10-Jun-18 13:52 36.784033 -121.526022 135 26631ft 488kts
10-Jun-18 13:53 36.690247 -121.401980 135 27948ft 496kts
10-Jun-18 13:54 36.594974 -121.276097 135 29138ft 503kts
10-Jun-18 13:55 36.498436 -121.149558 135 30573ft 502kts
10-Jun-18 13:56 36.403647 -121.022725 132 32069ft 500kts
10-Jun-18 13:57 36.312830 -120.892004 132 33484ft 497kts
10-Jun-18 13:58 36.222561 -120.763028 132 34815ft 494kts
10-Jun-18 13:59 36.132202 -120.633722 132 35080ft 496kts
10-Jun-18 14:00 36.042085 -120.505243 132 35075ft 493kts
10-Jun-18 14:01 35.952236 -120.378174 132 35075ft 489kts
10-Jun-18 14:02 35.858812 -120.256377 142 35068ft 488kts
10-Jun-18 14:03 35.744551 -120.166583 151 35068ft 486kts
10-Jun-18 14:04 35.629208 -120.080284 150 35054ft 486kts
10-Jun-18 14:05 35.514413 -119.993376 150 35056ft 485kts
10-Jun-18 14:06 35.399031 -119.906675 150 35046ft 484kts
10-Jun-18 14:07 35.284796 -119.820723 148 33081ft 479kts
10-Jun-18 14:08 35.179690 -119.723062 144 31078ft 467kts
10-Jun-18 14:09 35.078431 -119.627745 144 29187ft 454kts
10-Jun-18 14:10 34.979508 -119.535851 144 27341ft 441kts
10-Jun-18 14:11 34.882312 -119.446666 145 25449ft 431kts
10-Jun-18 14:12 34.787186 -119.361696 145 23671ft 419kts
10-Jun-18 14:13 34.693971 -119.279484 146 21787ft 411kts
10-Jun-18 14:14 34.601972 -119.199679 146 20186ft 395kts
10-Jun-18 14:15 34.514026 -119.122687 146 18129ft 387kts
10-Jun-18 14:16 34.428098 -119.046910 146 16622ft 377kts
10-Jun-18 14:17 34.343311 -118.973501 145 15148ft 371kts
10-Jun-18 14:18 34.261950 -118.899740 144 13673ft 357kts
10-Jun-18 14:19 34.187009 -118.830959 143 12547ft 330kts
10-Jun-18 14:20 34.129081 -118.772429 137 11610ft 323kts
10-Jun-18 14:21 34.064573 -118.701621 138 10773ft 303kts
10-Jun-18 14:22 34.024538 -118.621376 96 9408ft 283kts
10-Jun-18 14:23 34.017519 -118.534653 94 8513ft 251kts
10-Jun-18 14:24 34.011592 -118.452107 83 7411ft 243kts
10-Jun-18 14:25 34.019013 -118.370384 81 6028ft 245kts
10-Jun-18 14:26 34.026796 -118.288712 81 4545ft 242kts
10-Jun-18 14:27 34.035431 -118.211867 81 3968ft 225kts
10-Jun-18 14:28 34.044884 -118.134944 81 3065ft 226kts
10-Jun-18 14:29 34.043546 -118.066265 143 2904ft 208kts
10-Jun-18 14:30 33.989848 -118.065544 234 2956ft 207kts
10-Jun-18 14:31 33.979436 -118.133600 261 2967ft 202kts
10-Jun-18 14:32 33.973114 -118.196775 261 2968ft 186kts
10-Jun-18 14:33 33.966911 -118.257450 261 2458ft 170kts
10-Jun-18 14:34 33.961399 -118.311151 262 1607ft 153kts
10-Jun-18 14:35 33.956566 -118.359750 262 824ft 142kts
10-Jun-18 14:36 33.951524 -118.407959 261 134ft 137kts
10-Jun-18 14:37 33.949250 -118.419561 232 134ft 0kts
10-Jun-18 14:38 33.946957 -118.422107 106 134ft 18kts
10-Jun-18 14:39 33.947566 -118.415171 82 134ft 20kts
10-Jun-18 14:40 33.948450 -118.407871 82 134ft 18kts
10-Jun-18 14:41 33.947995 -118.402826 166 134ft 13kts
10-Jun-18 14:42 33.947341 -118.401965 102 134ft 0kts
10-Jun-18 14:43 33.947341 -118.401965 102 134ft 0kts

Navigation Log

Ident Type
Flight plan parsing failed, navigation log unavailable